createdAt,value
2023-02-25T00:00:36.249Z,23.47
2023-02-25T00:03:03.613Z,18.47
2023-02-25T00:05:31.903Z,18.93
2023-02-25T00:07:59.764Z,9.87
2023-02-25T00:10:27.237Z,28.97
2023-02-25T00:12:54.839Z,26.07
2023-02-25T00:15:22.792Z,21.20
2023-02-25T00:17:50.151Z,12.47
2023-02-25T00:20:22.473Z,19.80
2023-02-25T00:22:50.202Z,26.07
2023-02-25T00:25:17.515Z,30.90
2023-02-25T00:27:44.898Z,23.13
2023-02-25T00:30:12.969Z,24.50
2023-02-25T00:32:40.735Z,13.03
2023-02-25T00:35:12.624Z,18.40
2023-02-25T00:37:40.015Z,13.17
2023-02-25T00:40:14.971Z,22.17
2023-02-25T00:42:42.802Z,32.83
2023-02-25T00:45:10.510Z,30.97
2023-02-25T00:47:38.274Z,27.67
2023-02-25T00:50:09.177Z,25.23
2023-02-25T00:52:37.669Z,17.87
2023-02-25T00:55:06.491Z,22.40
2023-02-25T00:57:33.923Z,20.83
2023-02-25T01:00:01.354Z,25.77
2023-02-25T01:02:30.020Z,19.27
2023-02-25T01:04:58.921Z,13.67
2023-02-25T01:07:26.271Z,18.63
2023-02-25T01:09:57.839Z,21.10
2023-02-25T01:12:25.132Z,17.83
2023-02-25T01:14:55.996Z,23.63
2023-02-25T01:17:23.301Z,11.30
2023-02-25T01:19:50.630Z,20.03
2023-02-25T01:22:17.963Z,21.17
2023-02-25T01:24:45.397Z,19.97
2023-02-25T01:27:14.107Z,19.93
2023-02-25T01:29:44.018Z,25.93
2023-02-25T01:32:14.230Z,20.50
2023-02-25T01:34:41.664Z,12.57
2023-02-25T01:37:09.340Z,20.07
2023-02-25T01:39:40.387Z,26.43
2023-02-25T01:42:13.723Z,26.27
2023-02-25T01:45:00.333Z,20.00
2023-02-25T01:47:30.162Z,18.03
2023-02-25T01:49:57.650Z,25.43
2023-02-25T01:52:26.172Z,23.33
2023-02-25T01:54:56.453Z,23.40
2023-02-25T01:57:24.070Z,19.17
2023-02-25T01:59:54.335Z,15.53
2023-02-25T02:02:22.682Z,40.10
2023-02-25T02:04:51.857Z,16.33
2023-02-25T02:07:24.875Z,27.87
2023-02-25T02:09:58.623Z,17.97
2023-02-25T02:12:28.337Z,16.23
2023-02-25T02:14:57.013Z,17.80
2023-02-25T02:17:33.227Z,3.93
2023-02-25T02:20:10.033Z,14.20
2023-02-25T02:22:46.862Z,23.57
2023-02-25T02:25:14.630Z,17.70
2023-02-25T02:27:45.078Z,18.60
2023-02-25T02:30:23.274Z,26.23
2023-02-25T02:33:02.511Z,30.93
2023-02-25T02:35:48.673Z,24.23
2023-02-25T02:38:26.388Z,9.97
2023-02-25T02:41:12.553Z,14.47
2023-02-25T02:44:07.298Z,13.17
2023-02-25T02:46:36.412Z,15.93
2023-02-25T02:49:25.457Z,24.90
2023-02-25T02:51:57.262Z,25.40
2023-02-25T02:54:25.988Z,15.00
2023-02-25T02:56:54.742Z,25.97
2023-02-25T02:59:31.052Z,13.83
2023-02-25T03:02:00.488Z,16.13
2023-02-25T03:04:30.340Z,15.87
2023-02-25T03:07:56.234Z,18.63
2023-02-25T03:10:24.090Z,14.23
2023-02-25T03:12:51.472Z,22.67
2023-02-25T03:15:20.862Z,18.87
2023-02-25T03:17:53.205Z,12.40
2023-02-25T03:20:25.609Z,21.80
2023-02-25T03:22:54.910Z,16.70
2023-02-25T03:25:33.617Z,25.83
2023-02-25T03:28:04.091Z,13.90
2023-02-25T03:30:38.352Z,21.47
2023-02-25T03:33:14.727Z,22.43
2023-02-25T03:35:43.331Z,18.67
2023-02-25T03:38:13.337Z,10.77
2023-02-25T03:40:41.269Z,14.23
2023-02-25T03:43:11.705Z,18.30
2023-02-25T03:45:40.723Z,17.00
2023-02-25T03:48:09.282Z,13.60
2023-02-25T03:50:41.329Z,16.83
2023-02-25T03:53:10.860Z,15.53
2023-02-25T03:55:50.395Z,11.23
2023-02-25T03:58:17.762Z,14.97
2023-02-25T04:00:46.751Z,11.97
2023-02-25T04:03:14.261Z,11.23
2023-02-25T04:05:41.723Z,5.20
2023-02-25T04:08:15.783Z,17.63
2023-02-25T04:10:44.254Z,10.00
2023-02-25T04:13:12.725Z,12.77
2023-02-25T04:15:40.243Z,11.50
2023-02-25T04:18:07.680Z,14.70
2023-02-25T04:20:35.927Z,16.67
2023-02-25T04:23:03.435Z,11.17
2023-02-25T04:25:30.941Z,16.60
2023-02-25T04:27:58.274Z,9.50
2023-02-25T04:30:25.635Z,19.83
2023-02-25T04:32:53.060Z,9.53
2023-02-25T04:35:20.411Z,13.17
2023-02-25T04:37:47.823Z,8.40
2023-02-25T04:40:16.497Z,8.47
2023-02-25T04:42:43.848Z,15.10
2023-02-25T04:45:12.165Z,9.20
2023-02-25T04:47:39.452Z,11.73
2023-02-25T04:50:08.412Z,3.43
2023-02-25T04:52:36.021Z,6.80
2023-02-25T04:55:03.678Z,8.43
2023-02-25T04:57:31.215Z,6.50
2023-02-25T04:59:58.531Z,5.27
2023-02-25T05:02:25.864Z,10.27
2023-02-25T05:04:53.302Z,7.37
2023-02-25T05:07:20.626Z,7.37
2023-02-25T05:09:48.170Z,4.53
2023-02-25T05:12:15.477Z,11.07
2023-02-25T05:14:42.925Z,15.23
2023-02-25T05:17:10.259Z,10.23
2023-02-25T05:19:37.613Z,10.17
2023-02-25T05:22:04.919Z,8.97
2023-02-25T05:24:32.450Z,7.30
2023-02-25T05:27:08.407Z,13.47
2023-02-25T05:29:36.471Z,7.90
2023-02-25T05:32:04.004Z,6.83
2023-02-25T05:34:31.554Z,12.63
2023-02-25T05:36:58.867Z,3.57
2023-02-25T05:39:26.536Z,5.70
2023-02-25T05:41:54.793Z,9.40
2023-02-25T05:44:22.204Z,6.07
2023-02-25T05:46:49.573Z,6.60
2023-02-25T05:49:16.967Z,6.23
2023-02-25T05:51:44.272Z,7.37
2023-02-25T05:54:11.688Z,6.07
2023-02-25T05:56:38.994Z,14.37
2023-02-25T05:59:07.472Z,1.80
2023-02-25T06:01:35.246Z,11.00
2023-02-25T06:04:02.856Z,12.23
2023-02-25T06:06:31.813Z,9.73
2023-02-25T06:08:59.252Z,15.60
2023-02-25T06:11:27.906Z,10.47
2023-02-25T06:13:55.702Z,9.70
2023-02-25T06:16:24.787Z,12.43
2023-02-25T06:18:52.409Z,19.10
2023-02-25T06:21:20.168Z,10.13
2023-02-25T06:23:50.162Z,9.67
2023-02-25T06:26:18.071Z,4.17
2023-02-25T06:28:45.646Z,12.37
2023-02-25T06:31:14.706Z,13.30
2023-02-25T06:33:42.143Z,12.13
2023-02-25T06:36:09.701Z,15.00
2023-02-25T06:38:37.320Z,16.77
2023-02-25T06:41:09.005Z,33.40
2023-02-25T06:43:36.753Z,7.00
2023-02-25T06:46:05.308Z,10.63
2023-02-25T06:48:32.908Z,10.70
2023-02-25T06:51:00.736Z,8.10
2023-02-25T06:53:28.429Z,10.37
2023-02-25T06:55:56.217Z,15.43
2023-02-25T06:58:23.578Z,18.13
2023-02-25T07:00:51.013Z,9.57
2023-02-25T07:03:18.417Z,7.60
2023-02-25T07:05:45.852Z,13.63
2023-02-25T07:08:13.310Z,9.53
2023-02-25T07:10:41.727Z,18.47
2023-02-25T07:13:11.985Z,10.03
2023-02-25T07:15:39.449Z,12.57
2023-02-25T07:18:06.908Z,9.07
2023-02-25T07:20:34.440Z,8.83
2023-02-25T07:23:04.898Z,5.90
2023-02-25T07:25:32.459Z,3.57
2023-02-25T07:27:59.893Z,5.77
2023-02-25T07:30:27.279Z,7.70
2023-02-25T07:32:54.743Z,4.53
2023-02-25T07:35:22.148Z,11.47
2023-02-25T07:37:49.568Z,5.73
2023-02-25T07:40:17.220Z,17.17
2023-02-25T07:42:44.593Z,5.77
2023-02-25T07:45:12.968Z,4.63
2023-02-25T07:47:40.341Z,12.47
2023-02-25T07:50:10.869Z,12.13
2023-02-25T07:52:40.096Z,4.83
2023-02-25T07:55:07.795Z,13.77
2023-02-25T07:57:35.766Z,7.83
2023-02-25T08:00:05.026Z,14.03
2023-02-25T08:02:40.315Z,7.57
2023-02-25T08:05:08.129Z,9.63
2023-02-25T08:07:35.631Z,6.73
2023-02-25T08:10:03.047Z,8.03
2023-02-25T08:12:30.603Z,4.47
2023-02-25T08:15:01.790Z,10.70
2023-02-25T08:17:32.519Z,7.60
2023-02-25T08:19:59.996Z,10.03
2023-02-25T08:22:27.404Z,7.17
2023-02-25T08:24:54.814Z,7.57
2023-02-25T08:27:22.208Z,5.10
2023-02-25T08:29:49.803Z,5.60
2023-02-25T08:32:17.355Z,8.67
2023-02-25T08:34:47.783Z,9.40
2023-02-25T08:37:16.125Z,10.03
2023-02-25T08:39:43.682Z,10.23
2023-02-25T08:42:18.746Z,36.53
2023-02-25T08:44:46.211Z,4.07
2023-02-25T08:47:14.057Z,7.97
2023-02-25T08:49:41.539Z,2.37
2023-02-25T08:52:11.910Z,11.13
2023-02-25T08:54:39.859Z,6.47
2023-02-25T08:57:07.258Z,2.33
2023-02-25T08:59:35.953Z,4.00
2023-02-25T09:02:06.217Z,5.40
2023-02-25T09:04:34.733Z,8.93
2023-02-25T09:07:02.445Z,7.23
2023-02-25T09:09:30.183Z,9.83
2023-02-25T09:11:57.611Z,12.03
2023-02-25T09:14:24.955Z,8.70
2023-02-25T09:16:52.445Z,12.67
2023-02-25T09:19:20.751Z,7.97
2023-02-25T09:21:48.532Z,13.47
2023-02-25T09:24:16.431Z,13.60
2023-02-25T09:26:43.794Z,13.40
2023-02-25T09:29:11.235Z,8.90
2023-02-25T09:31:39.744Z,9.33
2023-02-25T09:34:09.933Z,3.43
2023-02-25T09:36:37.675Z,7.27
2023-02-25T09:39:10.152Z,4.07
2023-02-25T09:41:37.839Z,6.57
2023-02-25T09:44:14.401Z,11.53
2023-02-25T09:46:46.169Z,6.03
2023-02-25T09:49:20.790Z,2.57
2023-02-25T09:51:51.821Z,8.97
2023-02-25T09:54:23.042Z,10.13
2023-02-25T09:56:51.086Z,8.27
2023-02-25T09:59:24.427Z,15.37
2023-02-25T10:01:57.496Z,12.13
2023-02-25T10:04:30.812Z,10.10
2023-02-25T10:07:02.144Z,11.77
2023-02-25T10:09:34.043Z,6.57
2023-02-25T10:12:01.451Z,12.43
2023-02-25T10:14:41.055Z,9.03
2023-02-25T10:17:17.701Z,12.70
2023-02-25T10:19:45.189Z,6.60
2023-02-25T10:22:24.882Z,8.10
2023-02-25T10:24:59.372Z,11.03
2023-02-25T10:27:33.191Z,14.00
2023-02-25T10:30:04.475Z,10.93
2023-02-25T10:32:36.731Z,12.50
2023-02-25T10:35:25.765Z,8.87
2023-02-25T10:37:53.591Z,6.37
2023-02-25T10:40:22.556Z,10.40
2023-02-25T10:42:51.394Z,7.33
2023-02-25T10:45:26.749Z,11.13
2023-02-25T10:48:17.717Z,5.23
2023-02-25T10:51:02.985Z,10.43
2023-02-25T10:53:31.029Z,10.13
2023-02-25T10:55:59.691Z,7.60
2023-02-25T10:58:27.328Z,1.40
2023-02-25T11:01:04.766Z,13.63
2023-02-25T11:03:34.298Z,6.97
2023-02-25T11:06:09.930Z,13.47
2023-02-25T11:08:37.903Z,7.50
2023-02-25T11:11:05.481Z,4.70
2023-02-25T11:13:37.208Z,2.53
2023-02-25T11:16:07.435Z,9.43
2023-02-25T11:18:35.250Z,8.30
2023-02-25T11:21:07.867Z,11.70
2023-02-25T11:23:37.175Z,7.80
2023-02-25T11:26:06.819Z,6.10
2023-02-25T11:28:44.377Z,4.60
2023-02-25T11:31:23.181Z,0.80
2023-02-25T11:33:57.344Z,1.63
2023-02-25T11:36:26.145Z,1.33
2023-02-25T11:39:05.125Z,5.07
2023-02-25T11:41:32.672Z,1.63
2023-02-25T11:44:11.383Z,3.97
2023-02-25T11:46:39.835Z,3.43
2023-02-25T11:49:11.231Z,0.80
2023-02-25T11:51:54.826Z,3.87
2023-02-25T11:54:36.291Z,1.23
2023-02-25T11:57:13.113Z,0.73
2023-02-25T11:59:44.902Z,1.47
2023-02-25T12:02:12.295Z,6.10
2023-02-25T12:04:58.732Z,6.40
2023-02-25T12:07:51.428Z,2.43
2023-02-25T12:10:30.602Z,3.33
2023-02-25T12:13:07.219Z,3.57
2023-02-25T12:15:50.057Z,5.03
2023-02-25T12:18:23.635Z,2.20
2023-02-25T12:21:09.893Z,2.03
2023-02-25T12:23:52.632Z,3.20
2023-02-25T12:26:35.332Z,4.10
2023-02-25T12:29:21.621Z,1.87
2023-02-25T12:32:05.375Z,2.37
2023-02-25T12:34:56.644Z,9.43
2023-02-25T12:37:24.041Z,4.97
2023-02-25T12:39:54.534Z,2.20
2023-02-25T12:42:28.277Z,2.13
2023-02-25T12:44:55.627Z,1.60
2023-02-25T12:47:42.553Z,4.53
2023-02-25T12:50:29.338Z,0.70
2023-02-25T12:53:17.026Z,3.90
2023-02-25T12:56:03.476Z,3.73
2023-02-25T12:58:49.141Z,6.33
2023-02-25T13:01:44.009Z,2.13
2023-02-25T13:04:21.316Z,2.63
2023-02-25T13:06:59.020Z,6.80
2023-02-25T13:09:27.413Z,5.00
2023-02-25T13:12:11.385Z,2.27
2023-02-25T13:14:54.762Z,6.13
2023-02-25T13:17:30.308Z,2.63
2023-02-25T13:20:16.838Z,5.50
2023-02-25T13:22:54.422Z,6.60
2023-02-25T13:25:40.487Z,3.27
2023-02-25T13:28:15.733Z,1.00
2023-02-25T13:30:50.122Z,3.93
2023-02-25T13:33:46.165Z,3.40
2023-02-25T13:36:13.662Z,4.73
2023-02-25T13:39:00.028Z,2.70
2023-02-25T13:41:32.202Z,2.20
2023-02-25T13:44:18.549Z,3.17
2023-02-25T13:46:58.375Z,3.27
2023-02-25T13:49:34.930Z,3.37
2023-02-25T13:52:21.123Z,3.83
2023-02-25T13:55:07.119Z,1.07
2023-02-25T13:58:13.883Z,1.57
2023-02-25T14:01:04.245Z,6.07
2023-02-25T14:03:50.520Z,3.80
2023-02-25T14:06:30.340Z,6.70
2023-02-25T14:09:06.667Z,5.90
2023-02-25T14:11:37.704Z,5.87
2023-02-25T14:14:20.279Z,2.60
2023-02-25T14:17:06.059Z,1.77
2023-02-25T14:19:51.920Z,7.10
2023-02-25T14:22:30.907Z,1.10
2023-02-25T14:25:17.027Z,1.57
2023-02-25T14:28:05.971Z,5.93
2023-02-25T14:30:42.802Z,2.30
2023-02-25T14:33:22.615Z,0.90
2023-02-25T14:35:56.082Z,5.50
2023-02-25T14:38:35.931Z,5.67
2023-02-25T14:41:23.804Z,9.67
2023-02-25T14:43:53.777Z,2.40
2023-02-25T14:46:30.258Z,1.57
2023-02-25T14:49:03.503Z,2.83
2023-02-25T14:51:30.973Z,6.90
2023-02-25T14:54:11.090Z,3.83
2023-02-25T14:56:57.425Z,7.47
2023-02-25T14:59:24.768Z,4.73
2023-02-25T15:02:11.055Z,6.77
2023-02-25T15:04:56.176Z,2.73
2023-02-25T15:07:33.170Z,4.73
2023-02-25T15:10:16.350Z,6.50
2023-02-25T15:12:47.068Z,4.30
2023-02-25T15:15:33.251Z,3.67
2023-02-25T15:18:10.070Z,2.00
2023-02-25T15:20:41.123Z,6.07
2023-02-25T15:23:10.110Z,2.40
2023-02-25T15:25:38.243Z,6.43
2023-02-25T15:28:24.375Z,4.07
2023-02-25T15:31:01.888Z,4.33
2023-02-25T15:33:40.319Z,1.83
2023-02-25T15:36:20.120Z,2.40
2023-02-25T15:38:57.244Z,4.43
2023-02-25T15:41:27.850Z,8.87
2023-02-25T15:43:59.061Z,5.57
2023-02-25T15:46:38.679Z,2.43
2023-02-25T15:49:16.618Z,5.77
2023-02-25T15:51:51.560Z,4.50
2023-02-25T15:54:28.565Z,4.93
2023-02-25T15:57:01.244Z,9.77
2023-02-25T15:59:45.958Z,4.70
2023-02-25T16:02:33.478Z,4.33
2023-02-25T16:05:11.824Z,4.50
2023-02-25T16:07:40.941Z,2.23
2023-02-25T16:10:28.582Z,5.00
2023-02-25T16:12:57.743Z,3.10
2023-02-25T16:15:31.293Z,6.23
2023-02-25T16:18:00.312Z,7.40
2023-02-25T16:20:30.706Z,3.00
2023-02-25T16:22:59.590Z,4.07
2023-02-25T16:25:42.948Z,2.93
2023-02-25T16:28:26.994Z,1.70
2023-02-25T16:31:02.261Z,6.93
2023-02-25T16:33:35.507Z,3.40
2023-02-25T16:36:07.849Z,2.67
2023-02-25T16:38:38.412Z,9.00
2023-02-25T16:41:06.066Z,4.73
2023-02-25T16:43:36.479Z,6.03
2023-02-25T16:46:05.287Z,5.10
2023-02-25T16:48:32.794Z,6.73
2023-02-25T16:51:24.278Z,6.77
2023-02-25T16:54:01.165Z,3.50
2023-02-25T16:56:29.593Z,10.43
2023-02-25T16:59:00.167Z,4.23
2023-02-25T17:01:29.024Z,2.87
2023-02-25T17:04:16.721Z,6.17
2023-02-25T17:06:44.182Z,4.20
2023-02-25T17:09:24.945Z,7.10
2023-02-25T17:11:55.342Z,7.50
2023-02-25T17:14:23.317Z,9.17
2023-02-25T17:16:50.931Z,7.83
2023-02-25T17:19:20.511Z,5.67
2023-02-25T17:21:52.203Z,6.77
2023-02-25T17:24:21.726Z,6.60
2023-02-25T17:26:50.208Z,9.23
2023-02-25T17:29:18.706Z,8.70
2023-02-25T17:31:54.027Z,13.60
2023-02-25T17:34:33.002Z,8.77
2023-02-25T17:37:04.070Z,10.80
2023-02-25T17:39:31.777Z,8.40
2023-02-25T17:41:59.334Z,15.00
2023-02-25T17:44:42.599Z,12.17
2023-02-25T17:47:11.520Z,17.50
2023-02-25T17:49:39.594Z,16.33
2023-02-25T17:52:08.537Z,23.17
2023-02-25T17:54:37.576Z,16.40
2023-02-25T17:57:11.218Z,13.33
2023-02-25T17:59:39.875Z,11.17
2023-02-25T18:02:26.212Z,12.27
2023-02-25T18:05:08.601Z,12.07
2023-02-25T18:07:37.916Z,13.73
2023-02-25T18:10:06.712Z,14.37
2023-02-25T18:12:35.549Z,8.27
2023-02-25T18:15:04.095Z,12.20
2023-02-25T18:17:35.378Z,8.40
2023-02-25T18:20:04.891Z,17.83
2023-02-25T18:22:38.687Z,10.17
2023-02-25T18:25:07.820Z,16.00
2023-02-25T18:27:37.688Z,8.50
2023-02-25T18:30:19.438Z,13.67
2023-02-25T18:32:47.304Z,6.20
2023-02-25T18:35:15.289Z,12.30
2023-02-25T18:37:43.916Z,14.13
2023-02-25T18:40:20.873Z,10.70
2023-02-25T18:42:48.539Z,11.03
2023-02-25T18:45:17.283Z,13.17
2023-02-25T18:47:44.639Z,18.40
2023-02-25T18:50:12.185Z,11.03
2023-02-25T18:52:40.162Z,11.37
2023-02-25T18:55:09.099Z,12.73
2023-02-25T18:57:36.444Z,6.10
2023-02-25T19:00:04.240Z,11.47
2023-02-25T19:02:35.719Z,19.27
2023-02-25T19:05:04.061Z,8.93
2023-02-25T19:07:33.465Z,7.17
2023-02-25T19:10:01.101Z,4.77
2023-02-25T19:12:29.577Z,7.00
2023-02-25T19:15:07.118Z,9.90
2023-02-25T19:17:34.986Z,10.47
2023-02-25T19:20:02.832Z,9.13
2023-02-25T19:22:30.114Z,9.17
2023-02-25T19:24:57.821Z,2.50
2023-02-25T19:27:27.365Z,4.23
2023-02-25T19:29:56.372Z,9.80
2023-02-25T19:32:24.613Z,13.17
2023-02-25T19:34:52.071Z,13.13
2023-02-25T19:37:20.732Z,10.90
2023-02-25T19:39:48.348Z,6.40
2023-02-25T19:42:15.740Z,7.97
2023-02-25T19:44:43.213Z,9.17
2023-02-25T19:47:10.704Z,12.10
2023-02-25T19:49:38.098Z,6.27
2023-02-25T19:52:05.640Z,3.77
2023-02-25T19:54:32.955Z,6.27
2023-02-25T19:57:00.270Z,11.83
2023-02-25T19:59:29.999Z,6.00
2023-02-25T20:01:57.472Z,2.77
2023-02-25T20:04:25.050Z,1.70
2023-02-25T20:06:52.754Z,2.53
2023-02-25T20:09:20.111Z,2.70
2023-02-25T20:11:48.771Z,2.73
2023-02-25T20:14:17.358Z,7.93
2023-02-25T20:16:44.726Z,11.10
2023-02-25T20:19:12.144Z,7.03
2023-02-25T20:21:40.023Z,16.03
2023-02-25T20:24:07.761Z,12.27
2023-02-25T20:26:35.332Z,4.03
2023-02-25T20:29:02.700Z,5.57
2023-02-25T20:31:30.441Z,4.67
2023-02-25T20:33:59.080Z,10.93
2023-02-25T20:36:27.037Z,3.27
2023-02-25T20:38:54.669Z,5.90
2023-02-25T20:41:22.588Z,7.77
2023-02-25T20:43:49.980Z,13.30
2023-02-25T20:46:28.505Z,3.97
2023-02-25T20:48:56.636Z,5.23
2023-02-25T20:51:24.084Z,6.37
2023-02-25T20:53:51.523Z,13.93
2023-02-25T20:56:21.928Z,8.20
2023-02-25T20:58:49.608Z,5.87
2023-02-25T21:01:16.994Z,8.67
2023-02-25T21:03:44.322Z,9.20
2023-02-25T21:06:15.354Z,7.43
2023-02-25T21:08:42.966Z,9.80
2023-02-25T21:11:10.500Z,10.60
2023-02-25T21:13:37.934Z,6.80
2023-02-25T21:16:06.695Z,7.37
2023-02-25T21:18:34.538Z,9.77
2023-02-25T21:21:03.223Z,5.03
2023-02-25T21:23:31.195Z,7.30
2023-02-25T21:25:58.857Z,9.77
2023-02-25T21:28:26.705Z,8.60
2023-02-25T21:31:00.217Z,9.13
2023-02-25T21:33:27.763Z,5.90
2023-02-25T21:35:55.768Z,3.47
2023-02-25T21:38:23.712Z,6.63
2023-02-25T21:40:51.420Z,4.75
2023-02-25T21:43:19.025Z,4.90
2023-02-25T21:45:57.020Z,10.63
2023-02-25T21:48:25.728Z,6.77
2023-02-25T21:50:53.107Z,7.53
2023-02-25T21:53:21.790Z,6.30
2023-02-25T21:55:49.330Z,4.07
2023-02-25T21:58:16.653Z,5.55
2023-02-25T22:00:43.986Z,8.60
2023-02-25T22:03:11.317Z,9.33
2023-02-25T22:05:39.276Z,7.60
2023-02-25T22:08:06.860Z,6.17
2023-02-25T22:10:35.342Z,6.23
2023-02-25T22:13:03.101Z,4.70
2023-02-25T22:15:30.825Z,5.80
2023-02-25T22:17:58.393Z,4.50
2023-02-25T22:20:26.122Z,11.40
2023-02-25T22:22:53.432Z,6.80
2023-02-25T22:25:20.794Z,8.00
2023-02-25T22:27:48.064Z,2.80
2023-02-25T22:30:15.428Z,5.97
2023-02-25T22:32:43.141Z,5.97
2023-02-25T22:35:10.594Z,9.20
2023-02-25T22:37:38.202Z,10.70
2023-02-25T22:40:05.728Z,10.20
2023-02-25T22:42:33.186Z,7.20
2023-02-25T22:45:01.210Z,9.53
2023-02-25T22:47:28.570Z,6.40
2023-02-25T22:49:56.383Z,9.43
2023-02-25T22:52:23.772Z,10.67
2023-02-25T22:54:51.095Z,10.63
2023-02-25T22:57:18.476Z,9.07
2023-02-25T22:59:48.285Z,10.60
2023-02-25T23:02:16.484Z,10.13
2023-02-25T23:04:44.676Z,4.83
2023-02-25T23:07:13.215Z,8.53
2023-02-25T23:09:41.633Z,8.20
2023-02-25T23:12:09.008Z,10.03
2023-02-25T23:14:36.369Z,5.97
2023-02-25T23:17:04.477Z,12.37
2023-02-25T23:19:31.798Z,10.47
2023-02-25T23:21:59.117Z,16.93
2023-02-25T23:24:26.694Z,5.27
2023-02-25T23:26:54.269Z,11.90
2023-02-25T23:29:22.099Z,9.03
2023-02-25T23:31:49.878Z,3.33
2023-02-25T23:34:25.184Z,10.70
2023-02-25T23:36:55.651Z,7.03
2023-02-25T23:39:23.369Z,12.03
2023-02-25T23:41:50.700Z,8.40
2023-02-25T23:44:18.070Z,6.40
2023-02-25T23:46:45.576Z,8.30
2023-02-25T23:49:14.360Z,11.07
2023-02-25T23:51:45.671Z,6.73
2023-02-25T23:54:14.933Z,7.37
2023-02-25T23:56:42.295Z,4.57
2023-02-25T23:59:10.922Z,3.53
